Martin City, Missouri
Current Conditions -  °F | °C
As of 7:53 AM on Thursday 23 Oct 2014 (Local Time) from KOJC Reporting Station
Light Rain Light Rain  
Wind Chill: 58°   Ceiling: 10000
Heat Index: 58°   Visibility: 6mi
Dew Point: 58°   Wind: 10mph
Humidity: 100%   Direction: 200°SSW
Pressure: 30.07"   Gusts: NA
Location:  38.8519°N, 94.5455°W
Report Text: KOJC 231253Z 20009KT 6SM -RA BR FEW075 OVC100 14/14 A3007 RMK AO2 SLP177 P0006 T01440144
Loading
Personal Weather Stations






























Interactive Weather Map New forecast layout! Learn more

10-Day Weather Forecast

Advertisements
Track Severe Weather on mobile